sensor_id;sensor_type;location;lat;lon;timestamp;pressure;altitude;pressure_sealevel;temperature;humidity
9110;BME280;4590;51.462;6.692;2023-05-25T08:01:39;102497.31;;;19.63;46.20
9110;BME280;4590;51.462;6.692;2023-05-25T08:04:04;102501.41;;;19.66;46.13
9110;BME280;4590;51.462;6.692;2023-05-25T08:06:30;102497.63;;;19.70;46.33
9110;BME280;4590;51.462;6.692;2023-05-25T08:08:56;102502.88;;;19.72;45.16
9110;BME280;4590;51.462;6.692;2023-05-25T08:11:22;102504.56;;;19.81;46.52
9110;BME280;4590;51.462;6.692;2023-05-25T08:13:50;102509.47;;;19.84;44.86
9110;BME280;4590;51.462;6.692;2023-05-25T08:16:16;102502.88;;;19.72;45.41
9110;BME280;4590;51.462;6.692;2023-05-25T08:23:51;102505.81;;;19.49;44.57
9110;BME280;4590;51.462;6.692;2023-05-25T08:26:17;102508.94;;;19.56;45.43
9110;BME280;4590;51.462;6.692;2023-05-25T08:28:43;102505.50;;;19.68;44.93
9110;BME280;4590;51.462;6.692;2023-05-25T08:31:08;102512.94;;;19.81;46.04
9110;BME280;4590;51.462;6.692;2023-05-25T08:33:33;102509.97;;;19.86;45.47
9110;BME280;4590;51.462;6.692;2023-05-25T08:35:58;102512.94;;;19.90;45.61
9110;BME280;4590;51.462;6.692;2023-05-25T08:38:24;102510.47;;;19.88;45.34
9110;BME280;4590;51.462;6.692;2023-05-25T08:40:58;102519.34;;;19.82;44.68
9110;BME280;4590;51.462;6.692;2023-05-25T08:43:26;102525.91;;;19.77;44.84
9110;BME280;4590;51.462;6.692;2023-05-25T08:45:51;102525.56;;;19.70;43.31
9110;BME280;4590;51.462;6.692;2023-05-25T08:48:17;102522.13;;;19.65;44.60
9110;BME280;4590;51.462;6.692;2023-05-25T08:50:45;102532.06;;;19.48;43.93
9110;BME280;4590;51.462;6.692;2023-05-25T08:53:11;102525.09;;;19.28;44.52
9110;BME280;4590;51.462;6.692;2023-05-25T08:55:38;102527.16;;;19.14;44.67
9110;BME280;4590;51.462;6.692;2023-05-25T08:58:09;102529.22;;;19.00;44.53
9110;BME280;4590;51.462;6.692;2023-05-25T09:00:39;102522.63;;;18.96;45.48
9110;BME280;4590;51.462;6.692;2023-05-25T09:03:09;102527.19;;;18.92;45.73
9110;BME280;4590;51.462;6.692;2023-05-25T09:05:35;102518.47;;;18.85;45.56
9110;BME280;4590;51.462;6.692;2023-05-25T09:08:04;102518.16;;;18.86;46.03
9110;BME280;4590;51.462;6.692;2023-05-25T09:10:31;102524.56;;;18.87;45.67
9110;BME280;4590;51.462;6.692;2023-05-25T09:12:57;102526.22;;;18.88;45.93
9110;BME280;4590;51.462;6.692;2023-05-25T09:15:22;102535.25;;;18.93;46.02
9110;BME280;4590;51.462;6.692;2023-05-25T09:17:48;102532.69;;;19.06;45.71
9110;BME280;4590;51.462;6.692;2023-05-25T09:20:13;102534.06;;;19.17;45.04
9110;BME280;4590;51.462;6.692;2023-05-25T09:22:39;102538.59;;;19.35;44.86
9110;BME280;4590;51.462;6.692;2023-05-25T09:25:05;102536.81;;;19.48;44.97
9110;BME280;4590;51.462;6.692;2023-05-25T09:27:34;102532.38;;;19.47;43.92
9110;BME280;4590;51.462;6.692;2023-05-25T09:29:59;102542.41;;;19.48;44.45
9110;BME280;4590;51.462;6.692;2023-05-25T09:32:25;102539.88;;;19.38;44.59
9110;BME280;4590;51.462;6.692;2023-05-25T09:34:51;102530.66;;;19.28;44.64
9110;BME280;4590;51.462;6.692;2023-05-25T09:37:16;102541.44;;;19.21;44.96
9110;BME280;4590;51.462;6.692;2023-05-25T09:39:43;102538.63;;;19.13;44.99
9110;BME280;4590;51.462;6.692;2023-05-25T09:42:09;102540.72;;;19.07;45.24
9110;BME280;4590;51.462;6.692;2023-05-25T09:44:34;102544.97;;;19.05;45.56
9110;BME280;4590;51.462;6.692;2023-05-25T09:47:00;102541.00;;;18.97;45.37
9110;BME280;4590;51.462;6.692;2023-05-25T09:49:25;102541.13;;;18.92;45.10
9110;BME280;4590;51.462;6.692;2023-05-25T09:51:51;102537.84;;;18.90;45.50
9110;BME280;4590;51.462;6.692;2023-05-25T09:54:16;102552.25;;;18.83;44.78
9110;BME280;4590;51.462;6.692;2023-05-25T09:56:41;102550.22;;;18.75;44.95
9110;BME280;4590;51.462;6.692;2023-05-25T09:59:06;102548.56;;;18.74;45.17
9110;BME280;4590;51.462;6.692;2023-05-25T10:01:32;102548.34;;;18.62;45.10
9110;BME280;4590;51.462;6.692;2023-05-25T10:03:58;102547.63;;;18.56;45.35
9110;BME280;4590;51.462;6.692;2023-05-25T10:06:24;102551.75;;;18.59;45.76
9110;BME280;4590;51.462;6.692;2023-05-25T10:08:49;102548.13;;;18.58;45.87
9110;BME280;4590;51.462;6.692;2023-05-25T10:11:16;102554.03;;;18.57;45.78
9110;BME280;4590;51.462;6.692;2023-05-25T10:13:43;102554.81;;;18.57;45.89
9110;BME280;4590;51.462;6.692;2023-05-25T10:16:11;102560.53;;;18.52;45.70
9110;BME280;4590;51.462;6.692;2023-05-25T10:18:42;102560.59;;;18.39;45.43
9110;BME280;4590;51.462;6.692;2023-05-25T10:21:11;102573.56;;;18.21;45.56
9110;BME280;4590;51.462;6.692;2023-05-25T10:36:32;102573.78;;;17.97;48.13
9110;BME280;4590;51.462;6.692;2023-05-25T10:38:58;102570.91;;;18.02;47.46
9110;BME280;4590;51.462;6.692;2023-05-25T10:41:26;102569.97;;;18.07;48.11
9110;BME280;4590;51.462;6.692;2023-05-25T10:43:51;102567.00;;;18.03;46.74
9110;BME280;4590;51.462;6.692;2023-05-25T10:46:19;102572.88;;;18.02;46.63
9110;BME280;4590;51.462;6.692;2023-05-25T10:48:45;102572.16;;;17.96;46.99
9110;BME280;4590;51.462;6.692;2023-05-25T10:51:11;102574.09;;;17.96;47.15
9110;BME280;4590;51.462;6.692;2023-05-25T10:56:12;102567.38;;;18.10;47.38
9110;BME280;4590;51.462;6.692;2023-05-25T10:58:41;102555.06;;;18.25;47.32
9110;BME280;4590;51.462;6.692;2023-05-25T11:01:10;102563.56;;;18.42;46.65
9110;BME280;4590;51.462;6.692;2023-05-25T11:06:07;102563.91;;;18.63;46.92
9110;BME280;4590;51.462;6.692;2023-05-25T11:08:53;102545.09;;;18.69;46.41
9110;BME280;4590;51.462;6.692;2023-05-25T11:11:18;102556.13;;;18.74;46.42
9110;BME280;4590;51.462;6.692;2023-05-25T11:13:44;102554.16;;;18.74;46.38
9110;BME280;4590;51.462;6.692;2023-05-25T11:16:20;102556.31;;;18.55;45.27
9110;BME280;4590;51.462;6.692;2023-05-25T11:18:53;102547.44;;;18.53;45.91
9110;BME280;4590;51.462;6.692;2023-05-25T11:26:53;102550.63;;;18.24;45.99
9110;BME280;4590;51.462;6.692;2023-05-25T11:29:19;102547.66;;;18.20;46.22
9110;BME280;4590;51.462;6.692;2023-05-25T11:36:57;102543.84;;;18.16;45.96
9110;BME280;4590;51.462;6.692;2023-05-25T11:39:26;102528.78;;;18.17;44.45
9110;BME280;4590;51.462;6.692;2023-05-25T11:41:53;102534.53;;;18.21;44.53
9110;BME280;4590;51.462;6.692;2023-05-25T11:44:26;102535.69;;;18.20;44.94
9110;BME280;4590;51.462;6.692;2023-05-25T11:46:55;102523.25;;;18.26;45.21
9110;BME280;4590;51.462;6.692;2023-05-25T11:49:22;102533.72;;;18.20;45.05
9110;BME280;4590;51.462;6.692;2023-05-25T11:51:51;102525.66;;;18.19;45.28
9110;BME280;4590;51.462;6.692;2023-05-25T13:11:00;102471.91;;;19.34;43.37
9110;BME280;4590;51.462;6.692;2023-05-25T13:13:27;102469.28;;;19.37;43.41
9110;BME280;4590;51.462;6.692;2023-05-25T13:15:52;102475.69;;;19.38;42.65
9110;BME280;4590;51.462;6.692;2023-05-25T13:18:18;102471.09;;;19.33;43.16
9110;BME280;4590;51.462;6.692;2023-05-25T13:20:43;102463.84;;;19.32;42.37
9110;BME280;4590;51.462;6.692;2023-05-25T13:23:10;102459.44;;;19.31;42.70
9110;BME280;4590;51.462;6.692;2023-05-25T13:25:35;102459.56;;;19.26;42.68
9110;BME280;4590;51.462;6.692;2023-05-25T13:28:01;102452.66;;;19.23;42.40
9110;BME280;4590;51.462;6.692;2023-05-25T13:30:26;102450.03;;;19.18;42.51
9110;BME280;4590;51.462;6.692;2023-05-25T13:32:51;102450.88;;;19.27;42.40
9110;BME280;4590;51.462;6.692;2023-05-25T13:35:17;102457.41;;;19.23;42.20
9110;BME280;4590;51.462;6.692;2023-05-25T13:37:46;102452.50;;;19.28;41.99
9110;BME280;4590;51.462;6.692;2023-05-25T13:45:22;102449.28;;;19.44;42.70
9110;BME280;4590;51.462;6.692;2023-05-25T13:47:48;102446.34;;;19.49;42.93
9110;BME280;4590;51.462;6.692;2023-05-25T13:50:13;102442.09;;;19.60;42.96
9110;BME280;4590;51.462;6.692;2023-05-25T13:52:39;102453.78;;;19.71;42.69
9110;BME280;4590;51.462;6.692;2023-05-25T13:55:05;102447.22;;;19.75;42.37
9110;BME280;4590;51.462;6.692;2023-05-25T13:57:31;102444.41;;;19.75;42.23
9110;BME280;4590;51.462;6.692;2023-05-25T14:00:12;102438.34;;;19.73;42.38
9110;BME280;4590;51.462;6.692;2023-05-25T14:02:38;102447.69;;;19.69;41.62
9110;BME280;4590;51.462;6.692;2023-05-25T14:05:03;102449.84;;;19.63;41.35
9110;BME280;4590;51.462;6.692;2023-05-25T14:07:31;102451.97;;;19.66;41.55
9110;BME280;4590;51.462;6.692;2023-05-25T14:09:56;102445.53;;;19.57;41.13
9110;BME280;4590;51.462;6.692;2023-05-25T14:12:22;102440.28;;;19.55;41.18
9110;BME280;4590;51.462;6.692;2023-05-25T14:14:47;102437.81;;;19.54;41.57
9110;BME280;4590;51.462;6.692;2023-05-25T14:17:13;102440.78;;;19.57;41.98
9110;BME280;4590;51.462;6.692;2023-05-25T14:19:42;102436.53;;;19.60;42.33
9110;BME280;4590;51.462;6.692;2023-05-25T14:22:07;102436.03;;;19.67;42.21
9110;BME280;4590;51.462;6.692;2023-05-25T14:24:33;102432.44;;;19.66;42.13
9110;BME280;4590;51.462;6.692;2023-05-25T14:27:00;102435.03;;;19.71;41.99
9110;BME280;4590;51.462;6.692;2023-05-25T14:29:25;102428.97;;;19.69;41.26
9110;BME280;4590;51.462;6.692;2023-05-25T14:31:51;102435.53;;;19.73;41.92
9110;BME280;4590;51.462;6.692;2023-05-25T14:34:19;102429.78;;;19.70;41.51
9110;BME280;4590;51.462;6.692;2023-05-25T14:36:44;102429.63;;;19.66;41.26
9110;BME280;4590;51.462;6.692;2023-05-25T14:39:09;102421.41;;;19.70;41.09
9110;BME280;4590;51.462;6.692;2023-05-25T14:41:35;102418.47;;;19.75;41.13
9110;BME280;4590;51.462;6.692;2023-05-25T14:44:02;102419.94;;;19.72;41.11
9110;BME280;4590;51.462;6.692;2023-05-25T14:46:27;102417.81;;;19.78;41.33
9110;BME280;4590;51.462;6.692;2023-05-25T14:48:52;102430.63;;;19.87;41.64
9110;BME280;4590;51.462;6.692;2023-05-25T14:51:17;102422.91;;;19.93;41.05
9110;BME280;4590;51.462;6.692;2023-05-25T14:53:42;102424.72;;;19.98;41.44
9110;BME280;4590;51.462;6.692;2023-05-25T14:56:08;102431.13;;;19.98;41.26
9110;BME280;4590;51.462;6.692;2023-05-25T14:58:34;102424.22;;;19.95;40.80
9110;BME280;4590;51.462;6.692;2023-05-25T15:00:59;102421.91;;;19.89;40.52
9110;BME280;4590;51.462;6.692;2023-05-25T15:06:30;102421.41;;;19.78;40.08
9110;BME280;4590;51.462;6.692;2023-05-25T15:12:01;102422.06;;;19.75;39.69
9110;BME280;4590;51.462;6.692;2023-05-25T15:14:26;102422.25;;;19.79;40.38
9110;BME280;4590;51.462;6.692;2023-05-25T15:17:03;102426.34;;;19.81;41.19
9110;BME280;4590;51.462;6.692;2023-05-25T15:19:28;102429.78;;;19.87;40.72
9110;BME280;4590;51.462;6.692;2023-05-25T15:21:53;102427.31;;;19.85;40.67
9110;BME280;4590;51.462;6.692;2023-05-25T15:24:18;102420.78;;;19.81;40.70
9110;BME280;4590;51.462;6.692;2023-05-25T15:26:43;102420.09;;;19.76;40.56
9110;BME280;4590;51.462;6.692;2023-05-25T15:29:10;102416.97;;;19.77;40.39
9110;BME280;4590;51.462;6.692;2023-05-25T15:31:35;102412.72;;;19.80;40.74
9110;BME280;4590;51.462;6.692;2023-05-25T15:34:00;102409.41;;;19.86;40.99
9110;BME280;4590;51.462;6.692;2023-05-25T15:36:25;102403.50;;;19.88;40.28
9110;BME280;4590;51.462;6.692;2023-05-25T15:38:50;102404.66;;;19.95;40.61
9110;BME280;4590;51.462;6.692;2023-05-25T15:41:16;102408.25;;;20.05;40.75
9110;BME280;4590;51.462;6.692;2023-05-25T15:43:41;102392.47;;;20.09;39.61
9110;BME280;4590;51.462;6.692;2023-05-25T15:46:06;102397.91;;;20.14;40.68
9110;BME280;4590;51.462;6.692;2023-05-25T15:48:49;102377.84;;;20.03;39.55
9110;BME280;4590;51.462;6.692;2023-05-25T15:51:14;102399.53;;;20.15;40.05
9110;BME280;4590;51.462;6.692;2023-05-25T15:53:39;102403.13;;;20.15;39.98
9110;BME280;4590;51.462;6.692;2023-05-25T15:56:04;102405.78;;;20.12;40.34
9110;BME280;4590;51.462;6.692;2023-05-25T15:58:30;102405.63;;;20.00;39.94
9110;BME280;4590;51.462;6.692;2023-05-25T16:00:58;102400.38;;;19.98;39.71
9110;BME280;4590;51.462;6.692;2023-05-25T16:03:25;102401.38;;;19.93;40.33
9110;BME280;4590;51.462;6.692;2023-05-25T16:05:50;102395.78;;;19.93;39.97
9110;BME280;4590;51.462;6.692;2023-05-25T16:08:15;102390.03;;;19.73;40.11
9110;BME280;4590;51.462;6.692;2023-05-25T16:10:41;102397.91;;;19.88;40.28
9110;BME280;4590;51.462;6.692;2023-05-25T16:13:06;102396.44;;;19.90;40.05
9110;BME280;4590;51.462;6.692;2023-05-25T16:15:31;102398.25;;;19.95;40.60
9110;BME280;4590;51.462;6.692;2023-05-25T16:17:56;102395.25;;;20.00;40.42
9110;BME280;4590;51.462;6.692;2023-05-25T16:20:21;102385.44;;;19.94;39.55
9110;BME280;4590;51.462;6.692;2023-05-25T16:22:47;102386.56;;;19.93;40.28
9110;BME280;4590;51.462;6.692;2023-05-25T16:25:13;102392.84;;;19.99;40.01
9110;BME280;4590;51.462;6.692;2023-05-25T16:27:38;102394.44;;;20.00;40.33
9110;BME280;4590;51.462;6.692;2023-05-25T16:30:03;102393.28;;;20.01;40.16
9110;BME280;4590;51.462;6.692;2023-05-25T16:32:28;102396.25;;;20.04;40.62
9110;BME280;4590;51.462;6.692;2023-05-25T16:34:54;102394.13;;;20.10;40.56
9110;BME280;4590;51.462;6.692;2023-05-25T16:37:19;102391.63;;;20.17;40.75
9110;BME280;4590;51.462;6.692;2023-05-25T16:39:44;102396.06;;;20.18;40.09
9110;BME280;4590;51.462;6.692;2023-05-25T16:48:21;102392.44;;;20.17;40.44
9110;BME280;4590;51.462;6.692;2023-05-25T16:50:46;102402.31;;;20.15;40.51
9110;BME280;4590;51.462;6.692;2023-05-25T16:53:11;102396.72;;;20.15;40.14
9110;BME280;4590;51.462;6.692;2023-05-25T16:58:47;102394.94;;;20.02;39.55
9110;BME280;4590;51.462;6.692;2023-05-25T17:04:28;102390.69;;;19.87;39.97
9110;BME280;4590;51.462;6.692;2023-05-25T17:06:53;102396.25;;;19.87;40.46
9110;BME280;4590;51.462;6.692;2023-05-25T17:09:18;102394.28;;;19.87;40.66
9110;BME280;4590;51.462;6.692;2023-05-25T17:14:53;102390.50;;;19.83;39.89
9110;BME280;4590;51.462;6.692;2023-05-25T17:17:18;102383.78;;;19.84;40.17
9110;BME280;4590;51.462;6.692;2023-05-25T17:19:43;102385.75;;;19.84;39.97
9110;BME280;4590;51.462;6.692;2023-05-25T17:22:27;102385.09;;;19.87;40.39
9110;BME280;4590;51.462;6.692;2023-05-25T17:27:56;102383.44;;;19.86;40.40
9110;BME280;4590;51.462;6.692;2023-05-25T17:30:21;102388.22;;;19.85;39.94
9110;BME280;4590;51.462;6.692;2023-05-25T17:32:46;102385.91;;;19.87;40.09
9110;BME280;4590;51.462;6.692;2023-05-25T17:35:11;102387.56;;;19.88;40.26
9110;BME280;4590;51.462;6.692;2023-05-25T17:37:36;102393.16;;;19.88;39.39
9110;BME280;4590;51.462;6.692;2023-05-25T17:40:02;102390.19;;;19.85;39.71
9110;BME280;4590;51.462;6.692;2023-05-25T17:42:28;102391.19;;;19.80;39.62
9110;BME280;4590;51.462;6.692;2023-05-25T17:44:54;102393.50;;;19.78;39.62
9110;BME280;4590;51.462;6.692;2023-05-25T17:47:19;102384.63;;;19.76;40.05
9110;BME280;4590;51.462;6.692;2023-05-25T17:49:44;102384.97;;;19.66;39.94
9110;BME280;4590;51.462;6.692;2023-05-25T17:52:09;102407.75;;;19.68;40.23
9110;BME280;4590;51.462;6.692;2023-05-25T17:57:20;102391.50;;;19.70;40.25
9110;BME280;4590;51.462;6.692;2023-05-25T17:59:45;102394.78;;;19.72;40.39
9110;BME280;4590;51.462;6.692;2023-05-25T18:02:11;102385.28;;;19.73;40.09
9110;BME280;4590;51.462;6.692;2023-05-25T18:04:36;102392.97;;;19.68;40.07
9110;BME280;4590;51.462;6.692;2023-05-25T18:07:01;102394.97;;;19.67;40.38
9110;BME280;4590;51.462;6.692;2023-05-25T18:09:26;102398.56;;;19.68;40.49
9110;BME280;4590;51.462;6.692;2023-05-25T18:11:52;102390.03;;;19.64;39.76
9110;BME280;4590;51.462;6.692;2023-05-25T18:14:17;102396.59;;;19.59;39.83
9110;BME280;4590;51.462;6.692;2023-05-25T18:16:42;102392.50;;;19.57;40.13
9110;BME280;4590;51.462;6.692;2023-05-25T18:21:57;102388.25;;;19.51;40.35
9110;BME280;4590;51.462;6.692;2023-05-25T18:24:22;102400.34;;;19.46;40.42
9110;BME280;4590;51.462;6.692;2023-05-25T18:26:47;102392.28;;;19.45;40.46
9110;BME280;4590;51.462;6.692;2023-05-25T18:29:12;102389.00;;;19.43;40.86
9110;BME280;4590;51.462;6.692;2023-05-25T18:31:38;102383.25;;;19.39;40.54
9110;BME280;4590;51.462;6.692;2023-05-25T18:34:14;102393.59;;;19.39;40.36
9110;BME280;4590;51.462;6.692;2023-05-25T18:39:24;102392.13;;;19.33;40.71
9110;BME280;4590;51.462;6.692;2023-05-25T18:41:50;102393.91;;;19.28;40.95
9110;BME280;4590;51.462;6.692;2023-05-25T18:44:15;102390.13;;;19.24;41.08
9110;BME280;4590;51.462;6.692;2023-05-25T18:46:40;102393.91;;;19.20;40.80
9110;BME280;4590;51.462;6.692;2023-05-25T18:49:07;102390.59;;;19.18;41.05
9110;BME280;4590;51.462;6.692;2023-05-25T18:51:41;102400.94;;;19.17;41.18
9110;BME280;4590;51.462;6.692;2023-05-25T18:54:06;102396.84;;;19.15;41.25
9110;BME280;4590;51.462;6.692;2023-05-25T18:56:32;102397.66;;;19.15;41.52
9110;BME280;4590;51.462;6.692;2023-05-25T18:58:59;102396.00;;;19.14;41.47
9110;BME280;4590;51.462;6.692;2023-05-25T19:01:24;102391.06;;;19.11;41.08
9110;BME280;4590;51.462;6.692;2023-05-25T19:03:49;102397.28;;;19.08;41.53
9110;BME280;4590;51.462;6.692;2023-05-25T19:09:01;102398.44;;;18.99;41.40
9110;BME280;4590;51.462;6.692;2023-05-25T19:11:27;102402.00;;;18.90;41.31
9110;BME280;4590;51.462;6.692;2023-05-25T19:13:55;102405.28;;;18.92;41.43
9110;BME280;4590;51.462;6.692;2023-05-25T19:16:20;102403.97;;;18.90;41.63
9110;BME280;4590;51.462;6.692;2023-05-25T19:18:45;102411.50;;;18.89;41.39
9110;BME280;4590;51.462;6.692;2023-05-25T19:21:11;102411.84;;;18.88;41.76
9110;BME280;4590;51.462;6.692;2023-05-25T19:23:36;102407.22;;;18.83;42.17
9110;BME280;4590;51.462;6.692;2023-05-25T19:26:02;102398.03;;;18.83;42.19
9110;BME280;4590;51.462;6.692;2023-05-25T19:28:27;102419.03;;;18.80;41.58
9110;BME280;4590;51.462;6.692;2023-05-25T19:33:38;102422.94;;;18.71;41.85
9110;BME280;4590;51.462;6.692;2023-05-25T19:36:03;102421.72;;;18.63;42.16
9110;BME280;4590;51.462;6.692;2023-05-25T19:41:34;102426.75;;;18.52;42.29
9110;BME280;4590;51.462;6.692;2023-05-25T19:44:01;102433.06;;;18.44;42.42
9110;BME280;4590;51.462;6.692;2023-05-25T19:46:26;102428.78;;;18.38;42.48
9110;BME280;4590;51.462;6.692;2023-05-25T19:48:51;102439.53;;;18.31;42.57
9110;BME280;4590;51.462;6.692;2023-05-25T19:51:17;102438.69;;;18.22;42.71
9110;BME280;4590;51.462;6.692;2023-05-25T19:59:51;102447.13;;;17.95;43.32
9110;BME280;4590;51.462;6.692;2023-05-25T20:05:14;102448.00;;;17.81;44.14
9110;BME280;4590;51.462;6.692;2023-05-25T20:08:45;102451.59;;;17.82;43.07
9110;BME280;4590;51.462;6.692;2023-05-25T20:11:00;102450.41;;;17.74;43.03
9110;BME280;4590;51.462;6.692;2023-05-25T20:17:18;102449.06;;;17.58;43.71
9110;BME280;4590;51.462;6.692;2023-05-25T20:22:51;102459.19;;;17.40;44.37
9110;BME280;4590;51.462;6.692;2023-05-25T20:25:48;102461.56;;;17.33;44.51
9110;BME280;4590;51.462;6.692;2023-05-25T20:28:14;102462.00;;;17.27;44.21
9110;BME280;4590;51.462;6.692;2023-05-25T20:49:19;102480.28;;;16.73;45.93
9110;BME280;4590;51.462;6.692;2023-05-25T20:51:44;102480.06;;;16.69;46.04
9110;BME280;4590;51.462;6.692;2023-05-25T21:00:32;102486.97;;;16.53;45.80
9110;BME280;4590;51.462;6.692;2023-05-25T21:09:16;102497.34;;;16.34;46.96
9110;BME280;4590;51.462;6.692;2023-05-25T21:11:42;102510.16;;;16.30;47.10
9110;BME280;4590;51.462;6.692;2023-05-25T21:14:07;102501.91;;;16.25;46.63
9110;BME280;4590;51.462;6.692;2023-05-25T21:16:45;102520.09;;;16.17;47.17
9110;BME280;4590;51.462;6.692;2023-05-25T21:19:10;102512.06;;;16.16;47.35
9110;BME280;4590;51.462;6.692;2023-05-25T21:21:35;102514.59;;;16.12;46.93
9110;BME280;4590;51.462;6.692;2023-05-25T21:29:50;102528.72;;;15.97;48.30
9110;BME280;4590;51.462;6.692;2023-05-25T21:35:18;102522.63;;;15.95;47.79
9110;BME280;4590;51.462;6.692;2023-05-25T21:40:53;102528.34;;;15.85;47.40
9110;BME280;4590;51.462;6.692;2023-05-25T21:46:11;102529.28;;;15.75;47.77
9110;BME280;4590;51.462;6.692;2023-05-25T21:48:37;102534.63;;;15.71;47.11
9110;BME280;4590;51.462;6.692;2023-05-25T21:57:08;102535.94;;;15.55;47.74
9110;BME280;4590;51.462;6.692;2023-05-25T21:59:33;102544.59;;;15.49;47.95
9110;BME280;4590;51.462;6.692;2023-05-25T22:05:06;102537.22;;;15.39;48.43
9110;BME280;4590;51.462;6.692;2023-05-25T22:10:53;102550.59;;;15.32;48.80
9110;BME280;4590;51.462;6.692;2023-05-25T22:16:30;102554.31;;;15.22;48.52
